createdAt,value
2017-03-25T00:06:57.170Z,0
2017-03-25T00:16:57.121Z,0
2017-03-25T00:26:56.846Z,0
2017-03-25T00:36:57.110Z,0
2017-03-25T00:46:57.501Z,0
2017-03-25T00:56:56.901Z,0
2017-03-25T01:06:56.819Z,0
2017-03-25T01:16:57.854Z,0
2017-03-25T01:26:57.069Z,0
2017-03-25T01:36:57.086Z,0
2017-03-25T01:46:58.717Z,0
2017-03-25T01:56:56.775Z,0
2017-03-25T02:06:56.829Z,0
2017-03-25T02:16:56.889Z,0
2017-03-25T02:26:56.770Z,0
2017-03-25T02:36:56.729Z,0
2017-03-25T02:46:56.788Z,0
2017-03-25T02:56:56.913Z,0
2017-03-25T03:06:56.797Z,0
2017-03-25T03:16:56.804Z,0
2017-03-25T03:26:56.786Z,0
2017-03-25T03:36:56.712Z,0
2017-03-25T03:46:56.798Z,0
2017-03-25T03:56:56.741Z,0
2017-03-25T04:06:56.676Z,0
2017-03-25T04:16:56.762Z,0
2017-03-25T04:26:56.739Z,0
2017-03-25T04:36:56.703Z,0
2017-03-25T04:46:56.724Z,0
2017-03-25T04:56:56.662Z,0
2017-03-25T05:06:56.641Z,0
2017-03-25T05:16:56.766Z,5
2017-03-25T05:26:56.691Z,10
2017-03-25T05:36:56.794Z,15
2017-03-25T05:46:56.728Z,25
2017-03-25T05:56:56.683Z,40
2017-03-25T06:06:56.741Z,55
2017-03-25T06:16:56.671Z,75
2017-03-25T06:26:56.702Z,90
2017-03-25T06:36:56.731Z,110
2017-03-25T06:46:56.662Z,120
2017-03-25T06:56:56.737Z,125
2017-03-25T07:06:56.729Z,125
2017-03-25T07:16:56.656Z,125
2017-03-25T07:26:56.650Z,130
2017-03-25T07:36:56.708Z,130
2017-03-25T07:46:56.670Z,140
2017-03-25T07:56:56.695Z,145
2017-03-25T08:06:56.660Z,150
2017-03-25T08:16:56.636Z,155
2017-03-25T08:26:56.607Z,160
2017-03-25T08:36:56.661Z,155
2017-03-25T08:46:56.589Z,155
2017-03-25T08:56:56.682Z,150
2017-03-25T09:06:56.625Z,150
2017-03-25T09:16:56.713Z,160
2017-03-25T09:26:56.856Z,155
2017-03-25T09:37:08.188Z,150
2017-03-25T09:46:56.740Z,160
2017-03-25T09:56:56.628Z,180
2017-03-25T10:06:56.698Z,185
2017-03-25T10:16:56.733Z,160
2017-03-25T10:26:56.723Z,165
2017-03-25T10:36:56.710Z,170
2017-03-25T10:46:56.660Z,170
2017-03-25T10:56:56.776Z,150
2017-03-25T11:06:56.758Z,140
2017-03-25T11:16:56.611Z,130
2017-03-25T11:26:56.582Z,120
2017-03-25T11:36:56.681Z,130
2017-03-25T11:46:56.847Z,125
2017-03-25T11:56:56.772Z,120
2017-03-25T12:06:56.698Z,115
2017-03-25T12:16:56.821Z,115
2017-03-25T12:26:57.775Z,115
2017-03-25T12:36:56.788Z,115
2017-03-25T12:46:56.759Z,110
2017-03-25T12:56:56.737Z,115
2017-03-25T13:06:56.920Z,115
2017-03-25T13:16:56.712Z,115
2017-03-25T13:26:56.747Z,125
2017-03-25T13:36:56.736Z,130
2017-03-25T13:46:56.639Z,135
2017-03-25T13:56:56.635Z,135
2017-03-25T14:06:56.666Z,130
2017-03-25T14:16:56.645Z,120
2017-03-25T14:26:56.629Z,125
2017-03-25T14:36:56.822Z,130
2017-03-25T14:46:56.605Z,135
2017-03-25T14:56:56.600Z,130
2017-03-25T15:06:56.587Z,125
2017-03-25T15:16:56.653Z,120
2017-03-25T15:26:56.630Z,115
2017-03-25T15:36:56.590Z,110
2017-03-25T15:46:56.591Z,105
2017-03-25T15:56:56.597Z,100
2017-03-25T16:06:56.608Z,90
2017-03-25T16:16:56.636Z,90
2017-03-25T16:26:56.615Z,80
2017-03-25T16:36:56.685Z,75
2017-03-25T16:46:56.593Z,65
2017-03-25T16:56:56.607Z,55
2017-03-25T17:06:56.622Z,45
2017-03-25T17:16:56.574Z,35
2017-03-25T17:26:56.699Z,25
2017-03-25T17:36:56.618Z,15
2017-03-25T17:46:56.603Z,5
2017-03-25T17:56:56.623Z,0
2017-03-25T18:06:56.597Z,0
2017-03-25T18:16:56.605Z,0
2017-03-25T18:26:56.601Z,0
2017-03-25T18:36:56.601Z,0
2017-03-25T18:46:56.599Z,0
2017-03-25T18:56:56.656Z,0
2017-03-25T19:06:56.599Z,0
2017-03-25T19:16:56.627Z,0
2017-03-25T19:26:56.609Z,0
2017-03-25T19:36:56.606Z,0
2017-03-25T19:46:56.603Z,0
2017-03-25T19:56:56.606Z,0
2017-03-25T20:06:56.590Z,0
2017-03-25T20:16:56.599Z,0
2017-03-25T20:26:56.592Z,0
2017-03-25T20:36:56.593Z,0
2017-03-25T20:46:56.585Z,0
2017-03-25T20:56:56.566Z,0
2017-03-25T21:06:56.614Z,0
2017-03-25T21:16:56.634Z,0
2017-03-25T21:26:56.589Z,0
2017-03-25T21:36:56.580Z,0
2017-03-25T21:46:56.580Z,0
2017-03-25T21:56:56.585Z,0
2017-03-25T22:06:56.582Z,0
2017-03-25T22:16:56.581Z,0
2017-03-25T22:26:56.580Z,0
2017-03-25T22:36:56.583Z,0
2017-03-25T22:46:56.581Z,0
2017-03-25T22:56:56.746Z,0
2017-03-25T23:06:56.589Z,0
2017-03-25T23:16:56.646Z,0
2017-03-25T23:26:56.591Z,0
2017-03-25T23:36:56.667Z,0
2017-03-25T23:46:56.652Z,0
2017-03-25T23:56:56.573Z,0
